Time;durP1;ratioP1;P1;durP2;ratioP2;P2;SDS_P1;SDS_P2;PMS_P1;PMS_P2;Temp;Humidity;BMP_temperature;BMP_pressure;BME280_temperature;BME280_humidity;BME280_pressure;Samples;Min_cycle;Max_cycle;Signal;HPM_P1;HPM_P2
2024/02/27 00:01:14;;;;;;;3.20;2.40;;;8.00;99.90;;;;;;5016245;28;20394;-78
2024/02/27 00:03:39;;;;;;;2.80;2.47;;;8.00;99.90;;;;;;5008302;28;20387;-78
2024/02/27 00:06:07;;;;;;;2.57;2.10;;;7.90;99.90;;;;;;4997002;28;20405;-80
2024/02/27 00:08:32;;;;;;;2.60;2.30;;;7.90;99.90;;;;;;4987619;28;20566;-80
2024/02/27 00:10:58;;;;;;;2.50;2.25;;;7.80;99.90;;;;;;4994826;28;20783;-79
2024/02/27 00:13:24;;;;;;;2.80;2.47;;;7.80;99.90;;;;;;4992074;28;20406;-80
2024/02/27 00:15:49;;;;;;;2.50;2.30;;;7.70;99.90;;;;;;4995029;28;20386;-80
2024/02/27 00:18:16;;;;;;;2.90;2.10;;;7.80;99.90;;;;;;5001377;28;20441;-78
2024/02/27 00:20:43;;;;;;;2.60;2.40;;;7.70;99.90;;;;;;4997345;28;20390;-80
2024/02/27 00:23:08;;;;;;;3.47;2.35;;;7.80;99.90;;;;;;4992728;28;20414;-80
2024/02/27 00:25:34;;;;;;;2.10;1.90;;;7.80;99.90;;;;;;4990835;28;20439;-80
2024/02/27 00:28:00;;;;;;;2.83;1.90;;;7.80;99.90;;;;;;4994862;28;20402;-80
2024/02/27 00:30:25;;;;;;;2.63;2.07;;;7.70;99.90;;;;;;4994831;28;20478;-80
2024/02/27 00:32:52;;;;;;;1.80;1.70;;;7.60;99.90;;;;;;4996168;28;20405;-79
2024/02/27 00:35:18;;;;;;;3.05;2.10;;;7.70;99.90;;;;;;4998692;28;20530;-80
2024/02/27 00:37:44;;;;;;;4.93;2.08;;;7.50;99.90;;;;;;4992019;28;20404;-80
2024/02/27 00:40:12;;;;;;;2.27;2.07;;;7.60;99.90;;;;;;4998310;28;20390;-80
2024/02/27 00:42:38;;;;;;;3.88;2.00;;;7.60;99.90;;;;;;5006973;28;20897;-79
2024/02/27 00:45:04;;;;;;;2.95;2.22;;;7.60;99.90;;;;;;4998244;28;20390;-80
2024/02/27 00:47:29;;;;;;;3.55;2.20;;;7.60;99.90;;;;;;4998506;28;20389;-80
2024/02/27 00:49:55;;;;;;;2.40;1.90;;;7.50;99.90;;;;;;4997074;28;20837;-80
2024/02/27 00:52:20;;;;;;;2.80;2.10;;;7.70;99.90;;;;;;4994045;28;20965;-80
2024/02/27 00:54:46;;;;;;;3.37;1.70;;;7.70;99.90;;;;;;4997356;28;20397;-80
2024/02/27 00:57:11;;;;;;;3.30;2.23;;;7.00;99.90;;;;;;4993021;28;20423;-79
2024/02/27 00:59:37;;;;;;;3.80;2.20;;;7.80;99.90;;;;;;4994914;28;20461;-80
2024/02/27 01:02:03;;;;;;;3.70;2.10;;;7.70;99.90;;;;;;4996617;28;20393;-80
2024/02/27 01:04:28;;;;;;;2.75;2.10;;;7.70;99.90;;;;;;4994946;28;20778;-80
2024/02/27 01:06:55;;;;;;;2.28;1.90;;;7.60;99.90;;;;;;4995064;28;20379;-80
2024/02/27 01:09:20;;;;;;;2.13;1.92;;;7.50;99.90;;;;;;4995741;28;20399;-80
2024/02/27 01:11:46;;;;;;;4.10;1.50;;;7.80;99.90;;;;;;4996121;28;20481;-79
2024/02/27 01:14:11;;;;;;;3.45;2.00;;;7.80;99.90;;;;;;4987320;28;20435;-80
2024/02/27 01:16:37;;;;;;;2.55;1.80;;;7.80;99.90;;;;;;4996450;28;20398;-80
2024/02/27 01:19:02;;;;;;;2.28;1.75;;;7.80;99.90;;;;;;4999598;28;20952;-80
2024/02/27 01:21:28;;;;;;;2.30;2.00;;;7.90;99.90;;;;;;4994134;28;20394;-80
2024/02/27 01:23:54;;;;;;;2.03;1.70;;;7.80;99.90;;;;;;4997472;28;20410;-80
2024/02/27 01:26:19;;;;;;;1.50;1.40;;;7.90;99.90;;;;;;4997939;28;20470;-80
2024/02/27 01:28:45;;;;;;;1.90;1.50;;;7.40;99.90;;;;;;4997795;28;20743;-80
2024/02/27 01:31:10;;;;;;;3.37;1.60;;;8.00;99.90;;;;;;4995837;28;20402;-80
2024/02/27 01:33:36;;;;;;;1.80;1.70;;;8.10;99.90;;;;;;4995873;28;20898;-79
2024/02/27 01:36:02;;;;;;;1.77;1.67;;;7.50;99.90;;;;;;4998426;28;20390;-80
2024/02/27 01:38:27;;;;;;;2.38;1.95;;;8.10;99.90;;;;;;4998129;28;20770;-80
2024/02/27 01:40:53;;;;;;;2.33;1.67;;;7.70;99.90;;;;;;4995349;28;20501;-80
2024/02/27 01:43:25;;;;;;;4.20;2.00;;;8.00;99.90;;;;;;4996915;28;20383;-80
2024/02/27 01:46:12;;;;;;;2.80;2.13;;;7.90;99.90;;;;;;4996972;28;20430;-80
2024/02/27 01:48:38;;;;;;;3.70;2.00;;;8.00;99.90;;;;;;4985856;28;20778;-80
2024/02/27 01:51:05;;;;;;;3.10;2.80;;;8.00;99.90;;;;;;5014881;28;20416;-78
2024/02/27 01:53:31;;;;;;;3.50;3.20;;;8.00;99.90;;;;;;5015332;28;20410;-78
2024/02/27 01:55:58;;;;;;;4.07;3.77;;;7.20;99.90;;;;;;5010063;28;20406;-80
2024/02/27 01:58:23;;;;;;;4.20;3.70;;;8.10;99.90;;;;;;4998052;28;20422;-80
2024/02/27 02:00:49;;;;;;;3.60;3.13;;;8.00;99.90;;;;;;4997849;28;20766;-80
2024/02/27 02:03:17;;;;;;;3.90;3.47;;;8.20;99.90;;;;;;4997535;28;20893;-80
2024/02/27 02:05:43;;;;;;;4.85;3.70;;;8.00;99.90;;;;;;4995562;28;20409;-79
2024/02/27 02:08:09;;;;;;;5.10;3.17;;;8.00;99.90;;;;;;4996632;28;20399;-79
2024/02/27 02:10:34;;;;;;;5.03;4.10;;;7.90;99.90;;;;;;4990363;28;20405;-80
2024/02/27 02:13:01;;;;;;;3.50;3.20;;;7.90;99.90;;;;;;4994821;28;20422;-79
2024/02/27 02:15:27;;;;;;;4.95;3.85;;;7.90;99.90;;;;;;4994563;28;20402;-79
2024/02/27 02:17:52;;;;;;;6.27;3.90;;;7.90;99.90;;;;;;4994913;28;20485;-80
2024/02/27 02:20:18;;;;;;;4.57;3.50;;;7.90;99.90;;;;;;4997236;28;20468;-79
2024/02/27 02:22:44;;;;;;;4.07;3.67;;;7.90;99.90;;;;;;4997845;28;20441;-79
2024/02/27 02:25:11;;;;;;;4.32;3.92;;;7.80;99.90;;;;;;4997328;28;20425;-79
2024/02/27 02:27:45;;;;;;;5.00;4.43;;;7.90;99.90;;;;;;4994651;28;20390;-78
2024/02/27 02:30:12;;;;;;;4.35;3.95;;;7.90;99.90;;;;;;5003681;28;20513;-79
2024/02/27 02:32:50;;;;;;;4.55;4.00;;;8.00;99.90;;;;;;4996093;28;20766;-79
2024/02/27 02:35:16;;;;;;;4.40;3.80;;;7.90;99.90;;;;;;4996191;28;20382;-79
2024/02/27 02:37:47;;;;;;;4.50;4.00;;;7.70;99.90;;;;;;4992185;28;20537;-80
2024/02/27 02:40:13;;;;;;;6.40;4.00;;;7.70;99.90;;;;;;4995310;28;20398;-80
2024/02/27 02:42:38;;;;;;;5.45;4.00;;;7.80;99.90;;;;;;4990326;28;20404;-80
2024/02/27 02:45:05;;;;;;;4.35;3.60;;;7.70;99.90;;;;;;4986540;28;20462;-79
2024/02/27 02:47:30;;;;;;;4.93;4.38;;;7.70;99.90;;;;;;4987091;28;20875;-79
2024/02/27 02:49:56;;;;;;;6.80;4.70;;;7.90;99.90;;;;;;4995697;28;20414;-79
2024/02/27 02:52:21;;;;;;;4.70;4.30;;;7.90;99.90;;;;;;5003250;28;20451;-78
2024/02/27 02:54:47;;;;;;;4.65;4.00;;;7.90;99.90;;;;;;4997892;28;20809;-78
2024/02/27 02:57:12;;;;;;;4.70;3.80;;;7.90;99.90;;;;;;4998696;28;20409;-78
2024/02/27 02:59:38;;;;;;;4.60;4.10;;;7.80;99.90;;;;;;4997351;28;20406;-78
2024/02/27 03:02:03;;;;;;;4.70;4.20;;;7.80;99.90;;;;;;4996699;28;20394;-79
2024/02/27 03:04:31;;;;;;;5.80;4.60;;;7.70;99.90;;;;;;4997164;28;21673;-80
2024/02/27 03:06:56;;;;;;;5.30;4.80;;;7.80;99.90;;;;;;4997963;28;20418;-80
2024/02/27 03:09:22;;;;;;;5.70;4.70;;;7.70;99.90;;;;;;4997807;28;20455;-79
2024/02/27 03:11:49;;;;;;;6.30;5.20;;;7.90;99.90;;;;;;4994372;28;20398;-80
2024/02/27 03:14:15;;;;;;;5.00;4.40;;;7.90;99.90;;;;;;5032043;22;20992;-80
2024/02/27 03:16:41;;;;;;;6.75;4.70;;;7.90;99.90;;;;;;5038502;28;20747;-81
2024/02/27 03:19:06;;;;;;;5.95;5.25;;;8.00;99.90;;;;;;5024600;28;20403;-81
2024/02/27 03:21:32;;;;;;;5.70;5.03;;;8.00;99.90;;;;;;5037041;28;20402;-81
2024/02/27 03:23:58;;;;;;;6.10;4.70;;;8.10;99.90;;;;;;5013917;28;20393;-81
2024/02/27 03:26:24;;;;;;;7.55;4.93;;;7.60;99.90;;;;;;5014788;28;20419;-81
2024/02/27 03:28:49;;;;;;;4.70;4.30;;;8.00;99.90;;;;;;5025718;28;20527;-81
2024/02/27 03:31:15;;;;;;;6.17;5.00;;;7.90;99.90;;;;;;5020328;28;21288;-80
2024/02/27 03:33:40;;;;;;;5.70;4.57;;;7.50;99.90;;;;;;5021644;28;20428;-80
2024/02/27 03:36:06;;;;;;;6.35;4.90;;;7.90;99.90;;;;;;4997032;28;20381;-80
2024/02/27 03:38:32;;;;;;;6.00;5.40;;;7.80;99.90;;;;;;4996813;28;21018;-80
2024/02/27 03:40:57;;;;;;;6.47;5.43;;;7.90;99.90;;;;;;5015105;28;20405;-81
2024/02/27 03:43:23;;;;;;;7.40;5.80;;;8.00;99.90;;;;;;5014150;28;20414;-81
2024/02/27 03:45:48;;;;;;;6.40;5.40;;;7.80;99.90;;;;;;5015557;28;20395;-81
2024/02/27 03:48:14;;;;;;;6.10;5.20;;;8.00;99.90;;;;;;5014461;28;20401;-81
2024/02/27 03:50:39;;;;;;;7.10;5.57;;;8.00;99.90;;;;;;5014694;28;20431;-81
2024/02/27 03:53:05;;;;;;;6.37;5.40;;;7.90;99.90;;;;;;4997492;28;20955;-81
2024/02/27 03:55:30;;;;;;;5.85;5.20;;;8.00;99.90;;;;;;5014393;28;20393;-80
2024/02/27 03:57:56;;;;;;;6.13;4.83;;;7.80;99.90;;;;;;4998806;28;20397;-81
2024/02/27 04:00:22;;;;;;;5.83;5.23;;;7.30;99.90;;;;;;5022729;28;20424;-80
2024/02/27 04:02:47;;;;;;;6.33;5.63;;;7.90;99.90;;;;;;5026283;28;20476;-81
2024/02/27 04:05:13;;;;;;;6.60;5.50;;;7.50;99.90;;;;;;5020243;28;20399;-80
2024/02/27 04:07:39;;;;;;;6.25;4.90;;;7.90;99.90;;;;;;5014336;28;20407;-80
2024/02/27 04:10:05;;;;;;;5.95;5.18;;;7.80;99.90;;;;;;4997699;28;20404;-81
2024/02/27 04:12:30;;;;;;;5.90;5.30;;;7.80;99.90;;;;;;5018510;28;20403;-80
2024/02/27 04:14:56;;;;;;;5.50;5.00;;;8.00;99.90;;;;;;4996748;28;20492;-79
2024/02/27 04:17:21;;;;;;;5.90;5.30;;;7.60;99.90;;;;;;5034090;28;20462;-80
2024/02/27 04:19:47;;;;;;;5.85;5.05;;;7.80;99.90;;;;;;5020014;28;20451;-80
2024/02/27 04:22:13;;;;;;;5.20;4.70;;;8.00;99.90;;;;;;5002839;28;20395;-82
2024/02/27 04:24:39;;;;;;;6.30;5.07;;;7.80;99.90;;;;;;5019861;28;20388;-79
2024/02/27 04:27:05;;;;;;;5.87;5.10;;;7.70;99.90;;;;;;5014608;28;20396;-79
2024/02/27 04:29:30;;;;;;;6.93;5.20;;;8.10;99.90;;;;;;5013297;28;20462;-80
2024/02/27 04:31:56;;;;;;;7.07;5.20;;;8.00;99.90;;;;;;5011631;28;20900;-81
2024/02/27 04:34:21;;;;;;;5.57;4.78;;;7.90;99.90;;;;;;4993490;28;20406;-80
2024/02/27 04:36:47;;;;;;;7.65;5.50;;;7.90;99.90;;;;;;5006459;28;20395;-79
2024/02/27 04:39:14;;;;;;;6.13;4.70;;;7.70;99.90;;;;;;5027956;28;20408;-80
2024/02/27 04:41:40;;;;;;;5.97;5.30;;;7.40;99.90;;;;;;5021371;28;20400;-80
2024/02/27 04:44:05;;;;;;;6.60;5.10;;;7.90;99.90;;;;;;5021287;28;20868;-79
2024/02/27 04:46:31;;;;;;;5.57;4.80;;;7.80;99.90;;;;;;5000426;28;20392;-81
2024/02/27 04:48:56;;;;;;;5.73;5.20;;;7.40;99.90;;;;;;5016842;28;20510;-80
2024/02/27 04:51:22;;;;;;;5.97;5.37;;;7.70;99.90;;;;;;5017118;28;20403;-81
2024/02/27 04:53:47;;;;;;;7.82;5.18;;;7.60;99.90;;;;;;5017002;28;20383;-79
2024/02/27 04:56:13;;;;;;;6.10;4.77;;;7.80;99.90;;;;;;4998058;28;20409;-79
2024/02/27 04:58:38;;;;;;;5.90;5.20;;;7.80;99.90;;;;;;5014000;28;20408;-80
2024/02/27 05:01:04;;;;;;;6.50;5.83;;;7.50;99.90;;;;;;4999268;28;20422;-80
2024/02/27 05:03:29;;;;;;;6.22;4.90;;;7.70;99.90;;;;;;5001208;28;20381;-79
2024/02/27 05:05:55;;;;;;;6.43;4.75;;;7.50;99.90;;;;;;5022121;28;20416;-81
2024/02/27 05:08:20;;;;;;;5.65;5.15;;;7.70;99.90;;;;;;5027437;28;20385;-81
2024/02/27 05:10:46;;;;;;;6.00;5.40;;;7.70;99.90;;;;;;5021085;28;20404;-81
2024/02/27 05:13:11;;;;;;;5.47;4.97;;;7.60;99.90;;;;;;4999311;28;20397;-81
2024/02/27 05:15:37;;;;;;;5.22;4.78;;;7.60;99.90;;;;;;5022836;28;20396;-80
2024/02/27 05:18:03;;;;;;;5.80;5.10;;;7.90;99.90;;;;;;5015841;28;20415;-81
2024/02/27 05:20:28;;;;;;;5.10;4.60;;;7.80;99.90;;;;;;5018667;28;20491;-81
2024/02/27 05:22:54;;;;;;;5.35;4.85;;;7.70;99.90;;;;;;4992936;28;20415;-80
2024/02/27 05:25:20;;;;;;;5.82;5.03;;;7.60;99.90;;;;;;5001933;28;20463;-81
2024/02/27 05:27:45;;;;;;;7.17;5.30;;;7.60;99.90;;;;;;5021551;28;20443;-81
2024/02/27 05:30:11;;;;;;;6.27;5.50;;;7.70;99.90;;;;;;5024281;28;20408;-81
2024/02/27 05:32:37;;;;;;;6.82;5.00;;;7.80;99.90;;;;;;5017752;28;20393;-80
2024/02/27 05:35:04;;;;;;;6.75;5.57;;;7.70;99.90;;;;;;5008878;28;20470;-82
2024/02/27 05:37:30;;;;;;;6.40;4.85;;;7.80;99.90;;;;;;5014743;28;20387;-80
2024/02/27 05:39:55;;;;;;;6.28;5.00;;;7.70;99.90;;;;;;5017275;28;20462;-80
2024/02/27 05:42:22;;;;;;;5.43;4.70;;;7.40;99.90;;;;;;5017544;28;20442;-81
2024/02/27 05:44:48;;;;;;;5.53;5.03;;;7.70;99.90;;;;;;5017304;28;20381;-80
2024/02/27 05:47:13;;;;;;;5.22;4.72;;;7.70;99.90;;;;;;5021865;28;20896;-81
2024/02/27 05:49:39;;;;;;;5.23;4.40;;;7.80;99.90;;;;;;4995486;28;20410;-80
2024/02/27 05:52:04;;;;;;;4.87;4.27;;;7.50;99.90;;;;;;5028163;28;20415;-80
2024/02/27 05:54:30;;;;;;;5.50;4.70;;;7.80;99.90;;;;;;5028831;28;20484;-80
2024/02/27 05:56:55;;;;;;;5.00;4.50;;;7.70;99.90;;;;;;5017901;28;20385;-79
2024/02/27 05:59:21;;;;;;;5.07;4.57;;;7.80;99.90;;;;;;5035285;28;20546;-79
2024/02/27 06:01:47;;;;;;;5.27;4.77;;;7.80;99.90;;;;;;5033750;28;20409;-78
2024/02/27 06:04:13;;;;;;;5.38;4.80;;;7.40;99.90;;;;;;5032696;28;20452;-78
2024/02/27 06:06:38;;;;;;;4.60;4.20;;;7.60;99.90;;;;;;5022084;28;20389;-79
2024/02/27 06:09:04;;;;;;;5.90;5.00;;;7.70;99.90;;;;;;5031992;28;20409;-80
2024/02/27 06:11:29;;;;;;;4.63;4.23;;;7.60;99.90;;;;;;5032076;28;20486;-80
2024/02/27 06:13:55;;;;;;;6.10;4.90;;;7.50;99.90;;;;;;5031489;28;20391;-81
2024/02/27 06:16:20;;;;;;;6.50;4.97;;;7.50;99.90;;;;;;5014797;28;20411;-79
2024/02/27 06:18:47;;;;;;;6.20;5.10;;;7.60;99.90;;;;;;5030155;28;20403;-79
2024/02/27 06:23:58;;;;;;;5.40;4.70;;;7.70;99.90;;;;;;5030105;28;20382;-80
2024/02/27 06:26:23;;;;;;;5.47;4.50;;;7.50;99.90;;;;;;5029981;28;20391;-80
2024/02/27 06:28:49;;;;;;;6.10;5.50;;;7.20;99.90;;;;;;5032588;28;20395;-81
2024/02/27 06:31:15;;;;;;;6.68;5.00;;;7.40;99.90;;;;;;5015720;28;20418;-79
2024/02/27 06:33:40;;;;;;;7.03;5.70;;;7.40;99.90;;;;;;5030705;28;20415;-80
2024/02/27 06:36:06;;;;;;;5.70;5.05;;;7.20;99.90;;;;;;5012132;28;20473;-79
2024/02/27 06:38:32;;;;;;;5.65;5.00;;;7.50;99.90;;;;;;5031412;28;20405;-80
2024/02/27 06:40:57;;;;;;;8.30;5.28;;;7.60;99.90;;;;;;5030738;28;20914;-80
2024/02/27 06:43:23;;;;;;;5.70;5.10;;;7.60;99.90;;;;;;5010824;28;20472;-81
2024/02/27 06:45:48;;;;;;;5.70;4.90;;;7.70;99.90;;;;;;5032844;28;20395;-81
2024/02/27 06:48:14;;;;;;;6.70;4.70;;;7.40;99.90;;;;;;5030530;28;20467;-80
2024/02/27 06:50:40;;;;;;;6.05;4.70;;;7.50;99.90;;;;;;5040692;28;20391;-80
2024/02/27 06:53:08;;;;;;;5.27;4.40;;;7.20;99.90;;;;;;5040286;28;20418;-81
2024/02/27 06:55:34;;;;;;;5.60;4.60;;;7.60;99.90;;;;;;5031677;28;20391;-81
2024/02/27 06:57:59;;;;;;;5.10;4.60;;;7.30;99.90;;;;;;5012661;28;20468;-79
2024/02/27 07:00:25;;;;;;;6.77;4.70;;;7.60;99.90;;;;;;5032679;28;20391;-79
2024/02/27 07:02:50;;;;;;;5.90;4.50;;;8.20;99.90;;;;;;5012674;28;20427;-79
2024/02/27 07:05:16;;;;;;;5.50;4.17;;;7.70;99.90;;;;;;5030132;28;20949;-81
2024/02/27 07:07:42;;;;;;;6.32;5.05;;;7.40;99.90;;;;;;5026807;28;20409;-81
2024/02/27 07:10:07;;;;;;;5.00;4.30;;;7.80;99.90;;;;;;5033700;28;21315;-81
2024/02/27 07:12:34;;;;;;;5.90;4.38;;;7.80;99.90;;;;;;5035865;28;20618;-81
2024/02/27 07:14:59;;;;;;;5.03;4.53;;;7.80;99.90;;;;;;5034299;28;20468;-80
2024/02/27 07:17:25;;;;;;;5.50;4.80;;;7.90;99.90;;;;;;5029055;28;20418;-81
2024/02/27 07:19:51;;;;;;;5.20;4.70;;;7.80;99.90;;;;;;5030528;28;20399;-81
2024/02/27 07:22:17;;;;;;;5.03;4.53;;;7.90;99.90;;;;;;5008286;28;20411;-83
2024/02/27 07:24:42;;;;;;;4.90;4.30;;;7.80;99.90;;;;;;5010688;28;20417;-82
2024/02/27 07:27:08;;;;;;;5.00;4.50;;;7.90;99.90;;;;;;5003465;28;20397;-81
2024/02/27 07:29:33;;;;;;;7.40;5.40;;;8.00;99.90;;;;;;4997420;28;20399;-81
2024/02/27 07:32:00;;;;;;;5.00;4.10;;;8.20;99.90;;;;;;5018303;28;20390;-81
2024/02/27 07:34:25;;;;;;;4.40;3.80;;;8.40;99.90;;;;;;5033055;28;20407;-79
2024/02/27 07:36:52;;;;;;;5.23;4.63;;;8.30;99.90;;;;;;5015793;28;20400;-80
2024/02/27 07:39:18;;;;;;;4.90;4.40;;;10.70;99.90;;;;;;5032025;28;20415;-80
2024/02/27 07:41:44;;;;;;;6.23;4.43;;;8.40;99.90;;;;;;5035637;28;20902;-81
2024/02/27 07:44:09;;;;;;;6.20;4.70;;;8.40;99.90;;;;;;5006481;28;20423;-81
2024/02/27 07:46:35;;;;;;;5.35;4.00;;;8.20;99.90;;;;;;5037246;28;20429;-80
2024/02/27 07:49:01;;;;;;;4.22;3.83;;;8.40;99.90;;;;;;5026874;28;20405;-79
2024/02/27 07:51:33;;;;;;;4.70;4.20;;;8.30;99.90;;;;;;5021658;28;20491;-81
2024/02/27 07:53:59;;;;;;;5.88;4.30;;;8.60;99.90;;;;;;5014140;28;20845;-81
2024/02/27 07:56:26;;;;;;;4.55;4.07;;;8.10;99.90;;;;;;5015932;28;20396;-81
2024/02/27 07:58:52;;;;;;;6.10;4.10;;;8.50;99.90;;;;;;5015702;28;20418;-81
2024/02/27 08:01:18;;;;;;;4.72;3.53;;;8.40;99.90;;;;;;5021605;28;20379;-82
2024/02/27 08:03:44;;;;;;;5.60;4.10;;;8.60;99.90;;;;;;5025408;28;20393;-81
2024/02/27 08:06:09;;;;;;;4.57;4.17;;;8.50;99.90;;;;;;5021159;28;20387;-83
2024/02/27 08:08:35;;;;;;;4.60;3.90;;;8.60;99.90;;;;;;5015820;28;20962;-82
2024/02/27 08:11:03;;;;;;;4.70;4.10;;;8.20;99.90;;;;;;5015044;28;20958;-81
2024/02/27 08:13:30;;;;;;;6.10;4.30;;;8.80;99.90;;;;;;5005130;28;20419;-81
2024/02/27 08:15:56;;;;;;;4.45;4.05;;;8.70;99.90;;;;;;5022405;28;20403;-83
2024/02/27 08:18:23;;;;;;;4.20;3.80;;;8.80;99.90;;;;;;5021296;28;20479;-82
2024/02/27 08:20:49;;;;;;;5.30;4.25;;;8.80;99.90;;;;;;5004231;28;20486;-80
2024/02/27 08:23:15;;;;;;;4.60;4.20;;;8.80;99.90;;;;;;5027126;28;20397;-80
2024/02/27 08:25:40;;;;;;;5.50;4.57;;;8.80;99.90;;;;;;5002952;28;20486;-80
2024/02/27 08:28:06;;;;;;;5.17;4.67;;;10.80;99.90;;;;;;5016450;28;21708;-80
2024/02/27 08:30:32;;;;;;;5.67;4.53;;;8.90;99.90;;;;;;5010845;28;20375;-80
2024/02/27 08:32:58;;;;;;;5.82;5.05;;;9.20;99.90;;;;;;5020778;28;20432;-81
2024/02/27 08:35:24;;;;;;;7.53;5.50;;;9.40;99.90;;;;;;5018142;28;20865;-81
2024/02/27 08:37:50;;;;;;;7.20;5.72;;;8.90;99.90;;;;;;5020686;28;20395;-81
2024/02/27 08:40:15;;;;;;;6.63;5.60;;;8.90;99.90;;;;;;5020915;28;20409;-79
2024/02/27 08:42:41;;;;;;;8.57;6.37;;;8.90;99.90;;;;;;5026287;28;20398;-79
2024/02/27 08:45:09;;;;;;;7.40;6.30;;;9.30;99.90;;;;;;5036041;28;20380;-79
2024/02/27 08:47:34;;;;;;;7.50;6.05;;;9.20;99.90;;;;;;5005311;28;20385;-80
2024/02/27 08:50:05;;;;;;;7.97;7.13;;;9.00;99.90;;;;;;5031036;28;20398;-80
2024/02/27 08:52:30;;;;;;;9.73;6.95;;;9.00;99.90;;;;;;5025355;28;20410;-80
2024/02/27 08:54:56;;;;;;;9.48;6.60;;;9.10;99.90;;;;;;5008198;28;20399;-80
2024/02/27 08:57:22;;;;;;;8.60;6.70;;;9.30;99.90;;;;;;5009181;28;20473;-82
2024/02/27 08:59:48;;;;;;;7.67;6.63;;;8.90;99.90;;;;;;5028176;28;20464;-81
2024/02/27 09:02:14;;;;;;;7.57;6.73;;;9.20;99.90;;;;;;5041021;28;20786;-83
2024/02/27 09:04:39;;;;;;;9.20;7.10;;;9.10;99.90;;;;;;5021537;28;20475;-81
2024/02/27 09:07:05;;;;;;;7.90;6.80;;;9.20;99.90;;;;;;5038531;28;20419;-81
2024/02/27 09:09:31;;;;;;;8.43;7.53;;;8.90;99.90;;;;;;5020944;28;20395;-82
2024/02/27 09:11:57;;;;;;;8.50;7.13;;;9.10;99.90;;;;;;5037896;28;20390;-81
2024/02/27 09:14:22;;;;;;;8.05;6.88;;;9.30;99.90;;;;;;5040623;28;20399;-83
2024/02/27 09:16:48;;;;;;;9.43;7.22;;;8.70;99.90;;;;;;5047478;28;20441;-83
2024/02/27 09:19:14;;;;;;;8.00;6.77;;;9.50;99.90;;;;;;5051092;28;20922;-82
2024/02/27 09:21:41;;;;;;;8.80;7.57;;;9.30;99.90;;;;;;5052412;28;20387;-82
2024/02/27 09:24:07;;;;;;;9.60;7.70;;;9.10;99.90;;;;;;5050028;28;20394;-81
2024/02/27 09:26:32;;;;;;;9.15;7.60;;;9.20;99.90;;;;;;5034629;28;20385;-82
2024/02/27 09:28:58;;;;;;;8.73;7.83;;;9.10;99.90;;;;;;5030746;28;20455;-83
2024/02/27 09:31:23;;;;;;;9.33;7.53;;;9.20;99.90;;;;;;5030450;28;20456;-82
2024/02/27 09:33:49;;;;;;;9.38;7.88;;;9.40;99.90;;;;;;5029269;28;20393;-82
2024/02/27 09:36:14;;;;;;;8.98;7.65;;;8.80;99.90;;;;;;5012520;28;20388;-83
2024/02/27 09:38:40;;;;;;;11.70;9.00;;;9.40;99.90;;;;;;5030114;28;20467;-82
2024/02/27 09:41:06;;;;;;;10.40;9.13;;;8.90;99.90;;;;;;5031252;28;20393;-82
2024/02/27 09:43:33;;;;;;;11.80;10.00;;;9.30;99.90;;;;;;5033479;28;20389;-81
2024/02/27 09:46:00;;;;;;;11.63;9.40;;;9.20;99.90;;;;;;5030143;28;20395;-82
2024/02/27 09:48:29;;;;;;;12.27;10.40;;;9.00;99.90;;;;;;5012401;28;20392;-82
2024/02/27 09:50:56;;;;;;;11.57;9.77;;;8.70;99.90;;;;;;5011870;28;20400;-82
2024/02/27 09:53:23;;;;;;;12.32;10.30;;;9.30;99.90;;;;;;5029027;28;20384;-82
2024/02/27 09:55:51;;;;;;;14.40;9.82;;;10.00;99.90;;;;;;5028844;28;20909;-82
2024/02/27 09:58:19;;;;;;;12.60;10.73;;;9.50;99.90;;;;;;5029001;28;20452;-82
2024/02/27 10:00:45;;;;;;;12.70;10.70;;;9.30;99.90;;;;;;5028678;28;20767;-82
2024/02/27 10:03:13;;;;;;;12.37;11.07;;;9.20;99.90;;;;;;5028303;28;20388;-82
2024/02/27 10:05:40;;;;;;;14.33;11.00;;;9.40;99.90;;;;;;5027525;28;20420;-82
2024/02/27 10:08:14;;;;;;;14.60;11.20;;;9.50;99.90;;;;;;5010846;28;20385;-82
2024/02/27 10:10:41;;;;;;;12.57;10.70;;;9.60;99.90;;;;;;5028718;28;20726;-82
2024/02/27 10:13:07;;;;;;;13.07;11.05;;;9.20;99.90;;;;;;5027535;28;20431;-83
2024/02/27 10:15:32;;;;;;;16.20;11.40;;;9.10;99.90;;;;;;5027678;28;20452;-82
2024/02/27 10:17:58;;;;;;;14.87;12.30;;;9.00;99.90;;;;;;5009826;28;20389;-83
2024/02/27 10:20:28;;;;;;;15.20;12.07;;;9.40;99.90;;;;;;5010043;28;20784;-83
2024/02/27 10:22:55;;;;;;;13.00;11.50;;;9.40;99.90;;;;;;5027567;28;20399;-83
2024/02/27 10:25:25;;;;;;;15.90;12.48;;;9.60;99.90;;;;;;5002463;28;20462;-83
2024/02/27 10:27:50;;;;;;;14.67;11.97;;;9.50;99.90;;;;;;4991008;28;20398;-82
2024/02/27 10:30:17;;;;;;;13.30;11.90;;;9.20;99.90;;;;;;5010420;28;20394;-82
2024/02/27 10:32:43;;;;;;;14.40;12.70;;;9.80;99.90;;;;;;4991759;28;20390;-82
2024/02/27 10:35:09;;;;;;;16.92;12.68;;;9.90;99.90;;;;;;5009044;28;20450;-83
2024/02/27 10:37:36;;;;;;;16.08;12.30;;;9.80;99.90;;;;;;5011132;28;20397;-82
2024/02/27 10:40:02;;;;;;;14.68;11.40;;;9.60;99.90;;;;;;5011516;28;20421;-83
2024/02/27 10:42:29;;;;;;;15.65;12.82;;;10.20;99.90;;;;;;5008966;28;20394;-82
2024/02/27 10:44:58;;;;;;;14.57;12.75;;;9.70;99.90;;;;;;4991516;28;20445;-82
2024/02/27 10:47:27;;;;;;;16.40;12.90;;;9.70;99.90;;;;;;4991640;28;20400;-84
2024/02/27 10:49:53;;;;;;;14.13;11.90;;;9.70;99.90;;;;;;5007619;28;20399;-84
2024/02/27 10:52:22;;;;;;;14.70;12.40;;;9.70;99.90;;;;;;4990392;28;20418;-85
2024/02/27 10:54:49;;;;;;;15.77;13.33;;;9.80;99.90;;;;;;5007053;28;20394;-82
2024/02/27 10:57:17;;;;;;;17.25;12.68;;;9.80;99.90;;;;;;5007815;28;20391;-82
2024/02/27 10:59:45;;;;;;;13.73;11.70;;;10.60;99.90;;;;;;5007006;28;20402;-84
2024/02/27 11:02:19;;;;;;;14.10;12.10;;;9.70;99.90;;;;;;5007341;28;20387;-82
2024/02/27 11:04:47;;;;;;;13.60;12.07;;;9.90;99.90;;;;;;5007648;28;20390;-84
2024/02/27 11:07:17;;;;;;;16.77;11.80;;;10.00;99.90;;;;;;4989737;28;20395;-84
2024/02/27 11:09:49;;;;;;;14.77;12.30;;;9.20;99.90;;;;;;4990432;28;20795;-82
2024/02/27 11:12:16;;;;;;;14.80;12.50;;;9.60;99.90;;;;;;4990288;28;20391;-83
2024/02/27 11:14:47;;;;;;;14.20;12.53;;;10.10;99.90;;;;;;5006485;28;20499;-84
2024/02/27 11:17:19;;;;;;;15.57;13.38;;;10.00;99.90;;;;;;5009402;28;20431;-84
2024/02/27 11:19:52;;;;;;;12.70;11.40;;;10.10;99.90;;;;;;4992398;28;20406;-81
2024/02/27 11:22:20;;;;;;;14.05;12.45;;;10.10;99.90;;;;;;5008777;28;20382;-81
2024/02/27 11:24:47;;;;;;;14.40;11.80;;;10.30;99.90;;;;;;5011045;28;20393;-81
2024/02/27 11:27:25;;;;;;;13.15;10.85;;;10.40;99.90;;;;;;5028824;28;20388;-81
2024/02/27 11:29:53;;;;;;;13.43;11.02;;;10.00;99.90;;;;;;5029845;28;20400;-82
2024/02/27 11:32:20;;;;;;;11.65;10.45;;;10.30;99.90;;;;;;5029204;28;20396;-82
2024/02/27 11:34:49;;;;;;;12.80;9.77;;;10.60;99.90;;;;;;5027590;28;20465;-83
2024/02/27 11:37:18;;;;;;;11.77;9.63;;;10.40;99.90;;;;;;5028133;28;20427;-81
2024/02/27 11:39:43;;;;;;;9.18;8.05;;;10.80;99.90;;;;;;5035770;28;20413;-82
2024/02/27 11:42:38;;;;;;;9.43;8.43;;;10.70;99.90;;;;;;5037373;28;20407;-82
2024/02/27 11:45:14;;;;;;;7.30;6.60;;;11.30;99.90;;;;;;5035701;28;20412;-82
2024/02/27 11:47:42;;;;;;;7.32;5.40;;;11.50;99.90;;;;;;5030280;28;20428;-82
2024/02/27 11:50:12;;;;;;;6.80;5.40;;;11.20;99.90;;;;;;5013931;28;20486;-82
2024/02/27 11:52:42;;;;;;;6.78;5.20;;;11.70;99.90;;;;;;5008982;28;20389;-83
2024/02/27 11:55:09;;;;;;;7.53;5.80;;;11.70;99.90;;;;;;5026237;28;20397;-83
2024/02/27 11:57:36;;;;;;;7.32;6.50;;;12.00;99.90;;;;;;5027367;28;20384;-83
2024/02/27 12:00:14;;;;;;;8.70;7.33;;;11.70;99.90;;;;;;5027545;28;20518;-82
2024/02/27 12:02:45;;;;;;;8.52;7.20;;;12.10;99.90;;;;;;5022918;28;20396;-82
2024/02/27 12:05:10;;;;;;;6.75;6.15;;;11.70;99.90;;;;;;5025953;28;20388;-83
2024/02/27 12:07:36;;;;;;;9.77;7.60;;;11.60;99.90;;;;;;5026826;28;20400;-83
2024/02/27 12:10:10;;;;;;;8.83;7.53;;;11.10;99.90;;;;;;4996396;28;20466;-83
2024/02/27 12:12:39;;;;;;;10.15;8.00;;;12.10;99.90;;;;;;5006346;28;20397;-82
2024/02/27 12:15:06;;;;;;;8.70;7.40;;;12.00;99.90;;;;;;5006033;28;20403;-82
2024/02/27 12:17:32;;;;;;;10.80;8.25;;;12.00;99.90;;;;;;4992532;28;20407;-82
2024/02/27 12:19:59;;;;;;;10.18;8.40;;;11.70;99.90;;;;;;4987535;28;20411;-81
2024/02/27 12:22:26;;;;;;;9.77;8.50;;;11.50;99.90;;;;;;5004360;28;20386;-81
2024/02/27 12:24:58;;;;;;;9.77;8.80;;;11.60;99.90;;;;;;5006851;28;20388;-82
2024/02/27 12:27:24;;;;;;;10.95;9.00;;;11.40;99.90;;;;;;5025942;28;20442;-81
2024/02/27 12:29:50;;;;;;;9.40;8.40;;;11.40;99.90;;;;;;4995340;28;20405;-82
2024/02/27 12:32:15;;;;;;;9.40;7.90;;;11.20;99.90;;;;;;5019082;28;20392;-82
2024/02/27 12:34:41;;;;;;;8.45;7.30;;;11.70;99.90;;;;;;5010730;28;20496;-81
2024/02/27 12:37:07;;;;;;;9.18;6.82;;;11.70;99.90;;;;;;5012459;28;20396;-81
2024/02/27 12:39:33;;;;;;;7.45;6.50;;;12.00;99.90;;;;;;5037978;28;20969;-81
2024/02/27 12:42:00;;;;;;;7.72;6.28;;;11.90;99.90;;;;;;5048354;28;20882;-81
2024/02/27 12:44:26;;;;;;;6.20;5.50;;;11.80;99.90;;;;;;5047560;28;20383;-81
2024/02/27 12:46:52;;;;;;;5.80;4.65;;;11.60;99.90;;;;;;5011237;28;20423;-81
2024/02/27 12:49:18;;;;;;;5.03;4.20;;;11.50;99.90;;;;;;5025189;28;20451;-82
2024/02/27 12:51:45;;;;;;;4.95;4.45;;;11.40;99.90;;;;;;5027194;28;20396;-81